sensor_id;sensor_type;location;lat;lon;timestamp;P1;durP1;ratioP1;P2;durP2;ratioP2
5811;SDS011;2932;52.400;9.558;2023-07-31T00:01:29;3.80;;;2.20;;
5811;SDS011;2932;52.400;9.558;2023-07-31T00:03:54;4.20;;;2.05;;
5811;SDS011;2932;52.400;9.558;2023-07-31T00:06:19;3.00;;;2.00;;
5811;SDS011;2932;52.400;9.558;2023-07-31T00:08:45;1.85;;;1.75;;
5811;SDS011;2932;52.400;9.558;2023-07-31T00:11:10;3.78;;;1.65;;
5811;SDS011;2932;52.400;9.558;2023-07-31T00:13:35;3.13;;;1.58;;
5811;SDS011;2932;52.400;9.558;2023-07-31T00:16:01;2.17;;;1.63;;
5811;SDS011;2932;52.400;9.558;2023-07-31T00:18:26;3.40;;;1.50;;
5811;SDS011;2932;52.400;9.558;2023-07-31T00:20:51;2.75;;;1.50;;
5811;SDS011;2932;52.400;9.558;2023-07-31T00:23:17;2.53;;;1.80;;
5811;SDS011;2932;52.400;9.558;2023-07-31T00:25:42;1.80;;;1.58;;
5811;SDS011;2932;52.400;9.558;2023-07-31T00:28:10;4.28;;;2.60;;
5811;SDS011;2932;52.400;9.558;2023-07-31T00:30:36;2.47;;;2.20;;
5811;SDS011;2932;52.400;9.558;2023-07-31T00:33:01;4.32;;;2.17;;
5811;SDS011;2932;52.400;9.558;2023-07-31T00:35:26;2.75;;;1.73;;
5811;SDS011;2932;52.400;9.558;2023-07-31T00:37:52;2.33;;;1.50;;
5811;SDS011;2932;52.400;9.558;2023-07-31T00:40:17;3.03;;;1.50;;
5811;SDS011;2932;52.400;9.558;2023-07-31T00:42:42;3.83;;;1.55;;
5811;SDS011;2932;52.400;9.558;2023-07-31T00:45:08;2.35;;;1.67;;
5811;SDS011;2932;52.400;9.558;2023-07-31T00:47:33;3.83;;;1.52;;
5811;SDS011;2932;52.400;9.558;2023-07-31T00:49:59;3.63;;;2.20;;
5811;SDS011;2932;52.400;9.558;2023-07-31T00:52:24;4.47;;;1.92;;
5811;SDS011;2932;52.400;9.558;2023-07-31T00:54:52;4.03;;;1.80;;
5811;SDS011;2932;52.400;9.558;2023-07-31T00:57:17;5.82;;;1.58;;
5811;SDS011;2932;52.400;9.558;2023-07-31T00:59:43;3.83;;;1.55;;
5811;SDS011;2932;52.400;9.558;2023-07-31T01:02:08;4.45;;;2.00;;
5811;SDS011;2932;52.400;9.558;2023-07-31T01:04:34;2.00;;;1.80;;
5811;SDS011;2932;52.400;9.558;2023-07-31T01:09:49;3.45;;;1.63;;
5811;SDS011;2932;52.400;9.558;2023-07-31T01:12:17;1.45;;;1.25;;
5811;SDS011;2932;52.400;9.558;2023-07-31T01:14:52;2.53;;;1.60;;
5811;SDS011;2932;52.400;9.558;2023-07-31T01:17:36;2.00;;;1.30;;
5811;SDS011;2932;52.400;9.558;2023-07-31T01:20:05;2.00;;;1.20;;
5811;SDS011;2932;52.400;9.558;2023-07-31T01:28:14;3.85;;;1.45;;
5811;SDS011;2932;52.400;9.558;2023-07-31T01:30:47;3.75;;;1.35;;
5811;SDS011;2932;52.400;9.558;2023-07-31T01:33:14;4.88;;;1.30;;
5811;SDS011;2932;52.400;9.558;2023-07-31T01:35:42;2.95;;;1.20;;
5811;SDS011;2932;52.400;9.558;2023-07-31T01:38:09;2.95;;;1.27;;
5811;SDS011;2932;52.400;9.558;2023-07-31T01:40:34;1.67;;;1.20;;
5811;SDS011;2932;52.400;9.558;2023-07-31T01:43:00;1.38;;;1.10;;
5811;SDS011;2932;52.400;9.558;2023-07-31T01:45:25;1.33;;;1.00;;
5811;SDS011;2932;52.400;9.558;2023-07-31T01:47:51;3.47;;;1.20;;
5811;SDS011;2932;52.400;9.558;2023-07-31T01:50:16;2.58;;;1.20;;
5811;SDS011;2932;52.400;9.558;2023-07-31T01:52:42;2.47;;;1.10;;
5811;SDS011;2932;52.400;9.558;2023-07-31T01:55:07;2.63;;;1.15;;
5811;SDS011;2932;52.400;9.558;2023-07-31T01:57:32;2.28;;;1.17;;
5811;SDS011;2932;52.400;9.558;2023-07-31T01:59:58;3.28;;;1.17;;
5811;SDS011;2932;52.400;9.558;2023-07-31T02:02:24;0.95;;;0.95;;
5811;SDS011;2932;52.400;9.558;2023-07-31T02:04:49;1.45;;;0.82;;
5811;SDS011;2932;52.400;9.558;2023-07-31T02:07:14;2.10;;;1.10;;
5811;SDS011;2932;52.400;9.558;2023-07-31T02:09:40;1.70;;;0.93;;
5811;SDS011;2932;52.400;9.558;2023-07-31T02:12:05;3.80;;;1.00;;
5811;SDS011;2932;52.400;9.558;2023-07-31T02:14:33;1.55;;;1.02;;
5811;SDS011;2932;52.400;9.558;2023-07-31T02:16:58;0.85;;;0.70;;
5811;SDS011;2932;52.400;9.558;2023-07-31T02:19:24;1.65;;;0.93;;
5811;SDS011;2932;52.400;9.558;2023-07-31T02:21:49;1.42;;;0.50;;
5811;SDS011;2932;52.400;9.558;2023-07-31T02:24:14;1.88;;;1.00;;
5811;SDS011;2932;52.400;9.558;2023-07-31T02:26:40;1.80;;;0.70;;
5811;SDS011;2932;52.400;9.558;2023-07-31T02:29:05;1.83;;;0.75;;
5811;SDS011;2932;52.400;9.558;2023-07-31T02:31:30;1.17;;;0.90;;
5811;SDS011;2932;52.400;9.558;2023-07-31T02:33:55;1.73;;;0.52;;
5811;SDS011;2932;52.400;9.558;2023-07-31T02:36:21;0.82;;;0.70;;
5811;SDS011;2932;52.400;9.558;2023-07-31T02:38:46;1.38;;;0.80;;
5811;SDS011;2932;52.400;9.558;2023-07-31T02:41:11;1.60;;;0.80;;
5811;SDS011;2932;52.400;9.558;2023-07-31T02:43:37;0.70;;;0.70;;
5811;SDS011;2932;52.400;9.558;2023-07-31T02:46:02;0.82;;;0.70;;
5811;SDS011;2932;52.400;9.558;2023-07-31T02:48:27;1.75;;;1.20;;
5811;SDS011;2932;52.400;9.558;2023-07-31T02:50:53;0.90;;;0.75;;
5811;SDS011;2932;52.400;9.558;2023-07-31T02:53:18;1.45;;;0.93;;
5811;SDS011;2932;52.400;9.558;2023-07-31T02:55:43;0.65;;;0.65;;
5811;SDS011;2932;52.400;9.558;2023-07-31T02:58:09;0.95;;;0.80;;
5811;SDS011;2932;52.400;9.558;2023-07-31T03:00:34;2.85;;;0.80;;
5811;SDS011;2932;52.400;9.558;2023-07-31T03:03:00;1.02;;;0.75;;
5811;SDS011;2932;52.400;9.558;2023-07-31T03:05:25;0.82;;;0.82;;
5811;SDS011;2932;52.400;9.558;2023-07-31T03:07:50;6.47;;;1.00;;
5811;SDS011;2932;52.400;9.558;2023-07-31T03:10:16;0.80;;;0.80;;
5811;SDS011;2932;52.400;9.558;2023-07-31T03:12:41;0.90;;;0.90;;
5811;SDS011;2932;52.400;9.558;2023-07-31T03:15:07;0.77;;;0.77;;
5811;SDS011;2932;52.400;9.558;2023-07-31T03:17:32;0.70;;;0.70;;
5811;SDS011;2932;52.400;9.558;2023-07-31T03:19:58;7.22;;;1.08;;
5811;SDS011;2932;52.400;9.558;2023-07-31T03:22:23;2.33;;;0.80;;
5811;SDS011;2932;52.400;9.558;2023-07-31T03:24:48;0.80;;;0.75;;
5811;SDS011;2932;52.400;9.558;2023-07-31T03:27:14;2.35;;;0.98;;
5811;SDS011;2932;52.400;9.558;2023-07-31T03:29:39;0.80;;;0.80;;
5811;SDS011;2932;52.400;9.558;2023-07-31T03:32:04;1.10;;;0.90;;
5811;SDS011;2932;52.400;9.558;2023-07-31T03:34:30;2.35;;;1.00;;
5811;SDS011;2932;52.400;9.558;2023-07-31T03:36:57;1.83;;;0.90;;
5811;SDS011;2932;52.400;9.558;2023-07-31T03:39:22;3.97;;;1.05;;
5811;SDS011;2932;52.400;9.558;2023-07-31T03:41:48;3.00;;;1.15;;
5811;SDS011;2932;52.400;9.558;2023-07-31T03:44:13;1.08;;;1.00;;
5811;SDS011;2932;52.400;9.558;2023-07-31T03:46:38;4.30;;;1.25;;
5811;SDS011;2932;52.400;9.558;2023-07-31T03:49:03;1.90;;;1.08;;
5811;SDS011;2932;52.400;9.558;2023-07-31T03:51:29;1.20;;;1.10;;
5811;SDS011;2932;52.400;9.558;2023-07-31T03:53:54;3.30;;;1.05;;
5811;SDS011;2932;52.400;9.558;2023-07-31T03:56:19;1.20;;;1.10;;
5811;SDS011;2932;52.400;9.558;2023-07-31T03:58:45;1.30;;;1.10;;
5811;SDS011;2932;52.400;9.558;2023-07-31T04:01:10;1.17;;;1.13;;
5811;SDS011;2932;52.400;9.558;2023-07-31T04:03:36;1.17;;;1.08;;
5811;SDS011;2932;52.400;9.558;2023-07-31T04:06:01;1.42;;;1.10;;
5811;SDS011;2932;52.400;9.558;2023-07-31T04:08:26;1.52;;;1.00;;
5811;SDS011;2932;52.400;9.558;2023-07-31T04:10:52;1.10;;;1.00;;
5811;SDS011;2932;52.400;9.558;2023-07-31T04:13:17;1.10;;;0.90;;
5811;SDS011;2932;52.400;9.558;2023-07-31T04:15:43;1.85;;;1.00;;
5811;SDS011;2932;52.400;9.558;2023-07-31T04:18:13;1.15;;;0.80;;
5811;SDS011;2932;52.400;9.558;2023-07-31T04:20:39;1.70;;;0.90;;
5811;SDS011;2932;52.400;9.558;2023-07-31T04:23:04;1.38;;;1.00;;
5811;SDS011;2932;52.400;9.558;2023-07-31T04:25:29;1.50;;;1.00;;
5811;SDS011;2932;52.400;9.558;2023-07-31T04:27:55;1.27;;;1.10;;
5811;SDS011;2932;52.400;9.558;2023-07-31T04:30:20;1.70;;;1.27;;
5811;SDS011;2932;52.400;9.558;2023-07-31T04:32:45;1.83;;;1.00;;
5811;SDS011;2932;52.400;9.558;2023-07-31T04:35:10;1.70;;;0.90;;
5811;SDS011;2932;52.400;9.558;2023-07-31T04:37:36;1.17;;;0.98;;
5811;SDS011;2932;52.400;9.558;2023-07-31T04:40:01;0.80;;;0.80;;
5811;SDS011;2932;52.400;9.558;2023-07-31T04:42:27;0.60;;;0.60;;
5811;SDS011;2932;52.400;9.558;2023-07-31T04:44:52;3.05;;;0.60;;
5811;SDS011;2932;52.400;9.558;2023-07-31T04:47:18;0.90;;;0.60;;
5811;SDS011;2932;52.400;9.558;2023-07-31T04:49:43;0.60;;;0.40;;
5811;SDS011;2932;52.400;9.558;2023-07-31T04:52:09;0.90;;;0.80;;
5811;SDS011;2932;52.400;9.558;2023-07-31T04:54:34;0.38;;;0.38;;
5811;SDS011;2932;52.400;9.558;2023-07-31T04:56:59;0.60;;;0.30;;
5811;SDS011;2932;52.400;9.558;2023-07-31T04:59:24;1.27;;;0.40;;
5811;SDS011;2932;52.400;9.558;2023-07-31T05:01:50;1.08;;;0.30;;
5811;SDS011;2932;52.400;9.558;2023-07-31T05:04:15;0.50;;;0.50;;
5811;SDS011;2932;52.400;9.558;2023-07-31T05:06:41;1.65;;;0.40;;
5811;SDS011;2932;52.400;9.558;2023-07-31T05:09:06;0.30;;;0.30;;
5811;SDS011;2932;52.400;9.558;2023-07-31T05:11:32;0.40;;;0.40;;
5811;SDS011;2932;52.400;9.558;2023-07-31T05:13:57;1.73;;;0.60;;
5811;SDS011;2932;52.400;9.558;2023-07-31T05:16:22;0.75;;;0.55;;
5811;SDS011;2932;52.400;9.558;2023-07-31T05:18:48;1.27;;;0.77;;
5811;SDS011;2932;52.400;9.558;2023-07-31T05:21:13;1.15;;;0.93;;
5811;SDS011;2932;52.400;9.558;2023-07-31T05:23:38;2.10;;;1.15;;
5811;SDS011;2932;52.400;9.558;2023-07-31T05:26:04;1.35;;;1.25;;
5811;SDS011;2932;52.400;9.558;2023-07-31T05:28:30;2.20;;;1.50;;
5811;SDS011;2932;52.400;9.558;2023-07-31T05:30:59;2.67;;;2.30;;
5811;SDS011;2932;52.400;9.558;2023-07-31T05:33:25;2.80;;;2.50;;
5811;SDS011;2932;52.400;9.558;2023-07-31T05:35:51;4.35;;;2.53;;
5811;SDS011;2932;52.400;9.558;2023-07-31T05:38:16;3.80;;;3.20;;
5811;SDS011;2932;52.400;9.558;2023-07-31T05:40:42;4.60;;;3.50;;
5811;SDS011;2932;52.400;9.558;2023-07-31T05:43:08;4.32;;;3.90;;
5811;SDS011;2932;52.400;9.558;2023-07-31T05:45:34;7.20;;;4.00;;
5811;SDS011;2932;52.400;9.558;2023-07-31T05:47:59;8.68;;;4.70;;
5811;SDS011;2932;52.400;9.558;2023-07-31T05:50:25;5.47;;;4.82;;
5811;SDS011;2932;52.400;9.558;2023-07-31T05:52:50;6.18;;;5.00;;
5811;SDS011;2932;52.400;9.558;2023-07-31T05:55:16;8.48;;;6.05;;
5811;SDS011;2932;52.400;9.558;2023-07-31T05:57:41;8.68;;;5.80;;
5811;SDS011;2932;52.400;9.558;2023-07-31T06:00:07;6.18;;;5.40;;
5811;SDS011;2932;52.400;9.558;2023-07-31T06:02:34;9.20;;;6.65;;
5811;SDS011;2932;52.400;9.558;2023-07-31T06:05:01;7.82;;;6.13;;
5811;SDS011;2932;52.400;9.558;2023-07-31T06:07:28;7.68;;;6.10;;
5811;SDS011;2932;52.400;9.558;2023-07-31T06:09:54;9.63;;;6.93;;
5811;SDS011;2932;52.400;9.558;2023-07-31T06:12:20;8.10;;;6.25;;
5811;SDS011;2932;52.400;9.558;2023-07-31T06:14:45;10.38;;;6.90;;
5811;SDS011;2932;52.400;9.558;2023-07-31T06:17:11;10.65;;;6.85;;
5811;SDS011;2932;52.400;9.558;2023-07-31T06:19:36;8.25;;;6.53;;
5811;SDS011;2932;52.400;9.558;2023-07-31T06:22:01;8.60;;;6.50;;
5811;SDS011;2932;52.400;9.558;2023-07-31T06:24:27;6.63;;;5.72;;
5811;SDS011;2932;52.400;9.558;2023-07-31T06:26:53;10.80;;;6.88;;
5811;SDS011;2932;52.400;9.558;2023-07-31T06:29:27;10.60;;;5.95;;
5811;SDS011;2932;52.400;9.558;2023-07-31T06:31:53;8.00;;;5.93;;
5811;SDS011;2932;52.400;9.558;2023-07-31T06:34:18;8.02;;;6.45;;
5811;SDS011;2932;52.400;9.558;2023-07-31T06:36:43;8.35;;;5.50;;
5811;SDS011;2932;52.400;9.558;2023-07-31T06:39:09;10.85;;;5.63;;
5811;SDS011;2932;52.400;9.558;2023-07-31T06:41:34;7.47;;;5.68;;
5811;SDS011;2932;52.400;9.558;2023-07-31T06:43:59;10.60;;;5.80;;
5811;SDS011;2932;52.400;9.558;2023-07-31T06:46:25;8.27;;;5.40;;
5811;SDS011;2932;52.400;9.558;2023-07-31T06:48:50;11.88;;;6.60;;
5811;SDS011;2932;52.400;9.558;2023-07-31T06:51:15;9.57;;;6.03;;
5811;SDS011;2932;52.400;9.558;2023-07-31T06:53:41;11.20;;;6.20;;
5811;SDS011;2932;52.400;9.558;2023-07-31T06:56:07;8.95;;;5.93;;
5811;SDS011;2932;52.400;9.558;2023-07-31T06:58:33;11.13;;;6.60;;
5811;SDS011;2932;52.400;9.558;2023-07-31T07:00:58;13.40;;;5.97;;
5811;SDS011;2932;52.400;9.558;2023-07-31T07:03:24;10.38;;;6.07;;
5811;SDS011;2932;52.400;9.558;2023-07-31T07:05:49;9.60;;;6.28;;
5811;SDS011;2932;52.400;9.558;2023-07-31T07:08:14;10.65;;;6.75;;
5811;SDS011;2932;52.400;9.558;2023-07-31T07:10:40;10.38;;;5.57;;
5811;SDS011;2932;52.400;9.558;2023-07-31T07:13:05;10.77;;;5.90;;
5811;SDS011;2932;52.400;9.558;2023-07-31T07:15:30;11.27;;;6.53;;
5811;SDS011;2932;52.400;9.558;2023-07-31T07:17:56;10.40;;;6.40;;
5811;SDS011;2932;52.400;9.558;2023-07-31T07:20:21;10.48;;;6.15;;
5811;SDS011;2932;52.400;9.558;2023-07-31T07:22:46;9.68;;;6.03;;
5811;SDS011;2932;52.400;9.558;2023-07-31T07:25:12;11.70;;;6.38;;
5811;SDS011;2932;52.400;9.558;2023-07-31T07:27:37;8.32;;;6.07;;
5811;SDS011;2932;52.400;9.558;2023-07-31T07:30:02;10.30;;;5.95;;
5811;SDS011;2932;52.400;9.558;2023-07-31T07:32:28;13.77;;;6.72;;
5811;SDS011;2932;52.400;9.558;2023-07-31T07:34:54;10.13;;;6.50;;
5811;SDS011;2932;52.400;9.558;2023-07-31T07:37:20;12.10;;;6.68;;
5811;SDS011;2932;52.400;9.558;2023-07-31T07:39:45;10.27;;;6.10;;
5811;SDS011;2932;52.400;9.558;2023-07-31T07:42:11;11.48;;;6.13;;
5811;SDS011;2932;52.400;9.558;2023-07-31T07:44:36;11.68;;;5.95;;
5811;SDS011;2932;52.400;9.558;2023-07-31T07:47:02;11.20;;;6.22;;
5811;SDS011;2932;52.400;9.558;2023-07-31T07:49:28;10.63;;;6.00;;
5811;SDS011;2932;52.400;9.558;2023-07-31T07:51:53;13.05;;;7.05;;
5811;SDS011;2932;52.400;9.558;2023-07-31T07:54:18;10.80;;;6.30;;
5811;SDS011;2932;52.400;9.558;2023-07-31T07:56:46;10.02;;;6.10;;
5811;SDS011;2932;52.400;9.558;2023-07-31T07:59:11;11.65;;;5.97;;
5811;SDS011;2932;52.400;9.558;2023-07-31T08:01:36;10.63;;;5.60;;
5811;SDS011;2932;52.400;9.558;2023-07-31T08:04:02;8.70;;;4.88;;
5811;SDS011;2932;52.400;9.558;2023-07-31T08:06:27;9.43;;;4.95;;
5811;SDS011;2932;52.400;9.558;2023-07-31T08:08:54;7.63;;;4.93;;
5811;SDS011;2932;52.400;9.558;2023-07-31T08:11:20;11.48;;;4.60;;
5811;SDS011;2932;52.400;9.558;2023-07-31T08:13:45;8.70;;;5.03;;
5811;SDS011;2932;52.400;9.558;2023-07-31T08:16:11;7.05;;;4.85;;
5811;SDS011;2932;52.400;9.558;2023-07-31T08:18:36;11.40;;;4.80;;
5811;SDS011;2932;52.400;9.558;2023-07-31T08:21:02;10.95;;;4.80;;
5811;SDS011;2932;52.400;9.558;2023-07-31T08:23:27;9.15;;;4.55;;
5811;SDS011;2932;52.400;9.558;2023-07-31T08:25:53;8.55;;;4.63;;
5811;SDS011;2932;52.400;9.558;2023-07-31T08:28:18;9.98;;;4.38;;
5811;SDS011;2932;52.400;9.558;2023-07-31T08:30:44;12.05;;;5.35;;
5811;SDS011;2932;52.400;9.558;2023-07-31T08:33:10;8.73;;;4.45;;
5811;SDS011;2932;52.400;9.558;2023-07-31T08:35:36;8.98;;;4.38;;
5811;SDS011;2932;52.400;9.558;2023-07-31T08:38:01;8.07;;;4.18;;
5811;SDS011;2932;52.400;9.558;2023-07-31T08:40:26;10.25;;;4.10;;
5811;SDS011;2932;52.400;9.558;2023-07-31T08:42:54;7.70;;;4.03;;
5811;SDS011;2932;52.400;9.558;2023-07-31T08:45:27;7.93;;;4.30;;
5811;SDS011;2932;52.400;9.558;2023-07-31T08:47:53;7.20;;;4.45;;
5811;SDS011;2932;52.400;9.558;2023-07-31T08:50:19;7.75;;;4.60;;
5811;SDS011;2932;52.400;9.558;2023-07-31T08:52:45;7.35;;;3.92;;
5811;SDS011;2932;52.400;9.558;2023-07-31T08:55:12;11.10;;;4.50;;
5811;SDS011;2932;52.400;9.558;2023-07-31T08:57:38;6.63;;;3.78;;
5811;SDS011;2932;52.400;9.558;2023-07-31T09:00:04;5.65;;;3.85;;
5811;SDS011;2932;52.400;9.558;2023-07-31T09:02:34;7.65;;;4.15;;
5811;SDS011;2932;52.400;9.558;2023-07-31T09:05:07;9.63;;;4.25;;
5811;SDS011;2932;52.400;9.558;2023-07-31T09:07:36;6.65;;;4.03;;
5811;SDS011;2932;52.400;9.558;2023-07-31T09:10:02;7.00;;;3.97;;
5811;SDS011;2932;52.400;9.558;2023-07-31T09:12:29;6.13;;;3.80;;
5811;SDS011;2932;52.400;9.558;2023-07-31T09:14:54;8.48;;;4.15;;
5811;SDS011;2932;52.400;9.558;2023-07-31T09:17:31;6.15;;;4.07;;
5811;SDS011;2932;52.400;9.558;2023-07-31T09:20:15;6.20;;;3.88;;
5811;SDS011;2932;52.400;9.558;2023-07-31T09:22:42;4.38;;;3.33;;
5811;SDS011;2932;52.400;9.558;2023-07-31T09:25:18;4.85;;;3.42;;
5811;SDS011;2932;52.400;9.558;2023-07-31T09:30:19;3.15;;;2.85;;
5811;SDS011;2932;52.400;9.558;2023-07-31T09:32:47;4.03;;;3.60;;
5811;SDS011;2932;52.400;9.558;2023-07-31T09:35:20;5.97;;;3.28;;
5811;SDS011;2932;52.400;9.558;2023-07-31T09:37:56;3.95;;;2.70;;
5811;SDS011;2932;52.400;9.558;2023-07-31T09:40:26;4.30;;;2.90;;
5811;SDS011;2932;52.400;9.558;2023-07-31T09:42:57;3.13;;;2.30;;
5811;SDS011;2932;52.400;9.558;2023-07-31T09:45:23;2.47;;;2.28;;
5811;SDS011;2932;52.400;9.558;2023-07-31T09:47:49;3.92;;;2.00;;
5811;SDS011;2932;52.400;9.558;2023-07-31T09:50:15;3.22;;;2.22;;
5811;SDS011;2932;52.400;9.558;2023-07-31T09:52:43;2.10;;;1.90;;
5811;SDS011;2932;52.400;9.558;2023-07-31T09:55:09;3.10;;;1.63;;
5811;SDS011;2932;52.400;9.558;2023-07-31T09:57:39;2.33;;;1.70;;
5811;SDS011;2932;52.400;9.558;2023-07-31T10:00:09;2.85;;;1.60;;
5811;SDS011;2932;52.400;9.558;2023-07-31T10:02:36;2.17;;;1.52;;
5811;SDS011;2932;52.400;9.558;2023-07-31T10:05:03;1.50;;;1.40;;
5811;SDS011;2932;52.400;9.558;2023-07-31T10:07:34;1.60;;;1.35;;
5811;SDS011;2932;52.400;9.558;2023-07-31T10:10:03;2.65;;;1.55;;
5811;SDS011;2932;52.400;9.558;2023-07-31T10:12:35;2.28;;;1.58;;
5811;SDS011;2932;52.400;9.558;2023-07-31T10:15:03;1.98;;;1.40;;
5811;SDS011;2932;52.400;9.558;2023-07-31T10:17:29;1.60;;;1.45;;
5811;SDS011;2932;52.400;9.558;2023-07-31T10:19:56;7.97;;;1.98;;
5811;SDS011;2932;52.400;9.558;2023-07-31T10:22:23;1.88;;;1.60;;
5811;SDS011;2932;52.400;9.558;2023-07-31T10:24:50;2.05;;;1.45;;
5811;SDS011;2932;52.400;9.558;2023-07-31T10:27:15;1.70;;;1.60;;
5811;SDS011;2932;52.400;9.558;2023-07-31T10:29:41;1.40;;;1.30;;
5811;SDS011;2932;52.400;9.558;2023-07-31T10:32:09;1.60;;;1.50;;
5811;SDS011;2932;52.400;9.558;2023-07-31T10:34:37;1.45;;;1.35;;
5811;SDS011;2932;52.400;9.558;2023-07-31T10:39:55;1.90;;;1.30;;
5811;SDS011;2932;52.400;9.558;2023-07-31T10:42:20;1.83;;;1.50;;
5811;SDS011;2932;52.400;9.558;2023-07-31T10:44:56;1.58;;;1.48;;
5811;SDS011;2932;52.400;9.558;2023-07-31T10:47:22;1.90;;;1.48;;
5811;SDS011;2932;52.400;9.558;2023-07-31T10:49:48;1.52;;;1.42;;
5811;SDS011;2932;52.400;9.558;2023-07-31T10:52:13;2.13;;;1.42;;
5811;SDS011;2932;52.400;9.558;2023-07-31T10:54:39;2.20;;;1.40;;
5811;SDS011;2932;52.400;9.558;2023-07-31T10:57:20;2.58;;;1.70;;
5811;SDS011;2932;52.400;9.558;2023-07-31T10:59:47;2.25;;;1.88;;
5811;SDS011;2932;52.400;9.558;2023-07-31T11:02:26;2.00;;;1.75;;
5811;SDS011;2932;52.400;9.558;2023-07-31T11:05:10;2.10;;;1.65;;
5811;SDS011;2932;52.400;9.558;2023-07-31T11:07:48;1.80;;;1.70;;
5811;SDS011;2932;52.400;9.558;2023-07-31T11:10:17;1.80;;;1.30;;
5811;SDS011;2932;52.400;9.558;2023-07-31T11:12:44;1.90;;;1.42;;
5811;SDS011;2932;52.400;9.558;2023-07-31T11:15:11;1.90;;;1.42;;
5811;SDS011;2932;52.400;9.558;2023-07-31T11:17:39;2.25;;;1.00;;
5811;SDS011;2932;52.400;9.558;2023-07-31T11:20:05;1.55;;;1.40;;
5811;SDS011;2932;52.400;9.558;2023-07-31T11:22:32;1.83;;;1.20;;
5811;SDS011;2932;52.400;9.558;2023-07-31T11:25:00;1.60;;;1.30;;
5811;SDS011;2932;52.400;9.558;2023-07-31T11:27:27;1.65;;;1.10;;
5811;SDS011;2932;52.400;9.558;2023-07-31T11:29:59;2.13;;;1.30;;
5811;SDS011;2932;52.400;9.558;2023-07-31T11:32:25;1.75;;;1.20;;
5811;SDS011;2932;52.400;9.558;2023-07-31T11:34:53;1.98;;;1.60;;
5811;SDS011;2932;52.400;9.558;2023-07-31T11:37:20;1.05;;;0.95;;
5811;SDS011;2932;52.400;9.558;2023-07-31T11:39:58;1.83;;;1.17;;
5811;SDS011;2932;52.400;9.558;2023-07-31T11:42:24;1.08;;;0.98;;
5811;SDS011;2932;52.400;9.558;2023-07-31T11:44:50;1.85;;;0.95;;
5811;SDS011;2932;52.400;9.558;2023-07-31T11:47:15;1.40;;;1.30;;
5811;SDS011;2932;52.400;9.558;2023-07-31T11:49:41;1.30;;;0.98;;
5811;SDS011;2932;52.400;9.558;2023-07-31T11:52:08;1.20;;;1.00;;
5811;SDS011;2932;52.400;9.558;2023-07-31T11:54:34;1.35;;;1.00;;
5811;SDS011;2932;52.400;9.558;2023-07-31T11:56:59;1.65;;;0.80;;
5811;SDS011;2932;52.400;9.558;2023-07-31T11:59:26;1.13;;;1.00;;
5811;SDS011;2932;52.400;9.558;2023-07-31T12:01:52;1.90;;;0.90;;
5811;SDS011;2932;52.400;9.558;2023-07-31T12:04:18;1.10;;;1.02;;
5811;SDS011;2932;52.400;9.558;2023-07-31T12:06:46;2.03;;;0.93;;
5811;SDS011;2932;52.400;9.558;2023-07-31T12:09:13;0.73;;;0.73;;
5811;SDS011;2932;52.400;9.558;2023-07-31T12:11:45;0.63;;;0.63;;
5811;SDS011;2932;52.400;9.558;2023-07-31T12:14:21;1.27;;;0.70;;
5811;SDS011;2932;52.400;9.558;2023-07-31T12:16:52;1.17;;;0.77;;
5811;SDS011;2932;52.400;9.558;2023-07-31T12:19:21;0.85;;;0.60;;
5811;SDS011;2932;52.400;9.558;2023-07-31T12:21:47;0.50;;;0.50;;
5811;SDS011;2932;52.400;9.558;2023-07-31T12:24:12;0.88;;;0.80;;
5811;SDS011;2932;52.400;9.558;2023-07-31T12:26:37;0.60;;;0.60;;
5811;SDS011;2932;52.400;9.558;2023-07-31T12:29:05;1.25;;;0.55;;
5811;SDS011;2932;52.400;9.558;2023-07-31T12:31:33;0.70;;;0.50;;
5811;SDS011;2932;52.400;9.558;2023-07-31T12:33:59;1.17;;;0.60;;
5811;SDS011;2932;52.400;9.558;2023-07-31T12:36:24;2.75;;;0.73;;
5811;SDS011;2932;52.400;9.558;2023-07-31T12:38:50;0.40;;;0.40;;
5811;SDS011;2932;52.400;9.558;2023-07-31T12:41:16;0.50;;;0.50;;
5811;SDS011;2932;52.400;9.558;2023-07-31T12:43:44;0.50;;;0.50;;
5811;SDS011;2932;52.400;9.558;2023-07-31T12:46:10;0.40;;;0.40;;
5811;SDS011;2932;52.400;9.558;2023-07-31T12:48:36;0.50;;;0.50;;
5811;SDS011;2932;52.400;9.558;2023-07-31T12:51:02;1.85;;;0.50;;
5811;SDS011;2932;52.400;9.558;2023-07-31T12:53:28;0.70;;;0.40;;
5811;SDS011;2932;52.400;9.558;2023-07-31T12:55:54;0.50;;;0.50;;
5811;SDS011;2932;52.400;9.558;2023-07-31T12:58:20;1.95;;;0.50;;
5811;SDS011;2932;52.400;9.558;2023-07-31T13:00:45;0.70;;;0.70;;
5811;SDS011;2932;52.400;9.558;2023-07-31T13:03:10;0.60;;;0.60;;
5811;SDS011;2932;52.400;9.558;2023-07-31T13:05:36;1.90;;;0.70;;
5811;SDS011;2932;52.400;9.558;2023-07-31T13:08:01;0.70;;;0.70;;
5811;SDS011;2932;52.400;9.558;2023-07-31T13:10:27;1.95;;;0.70;;
5811;SDS011;2932;52.400;9.558;2023-07-31T13:12:53;2.25;;;0.70;;
5811;SDS011;2932;52.400;9.558;2023-07-31T13:15:19;1.23;;;0.80;;
5811;SDS011;2932;52.400;9.558;2023-07-31T13:17:45;1.73;;;0.80;;
5811;SDS011;2932;52.400;9.558;2023-07-31T13:20:11;0.98;;;0.70;;
5811;SDS011;2932;52.400;9.558;2023-07-31T13:22:36;0.90;;;0.63;;
5811;SDS011;2932;52.400;9.558;2023-07-31T13:25:01;0.77;;;0.77;;
5811;SDS011;2932;52.400;9.558;2023-07-31T13:27:28;2.05;;;0.68;;
5811;SDS011;2932;52.400;9.558;2023-07-31T13:29:53;1.48;;;0.70;;
5811;SDS011;2932;52.400;9.558;2023-07-31T13:32:19;0.80;;;0.70;;
5811;SDS011;2932;52.400;9.558;2023-07-31T13:34:45;0.70;;;0.70;;
5811;SDS011;2932;52.400;9.558;2023-07-31T13:37:11;0.60;;;0.60;;
5811;SDS011;2932;52.400;9.558;2023-07-31T13:39:37;0.50;;;0.50;;
5811;SDS011;2932;52.400;9.558;2023-07-31T13:42:02;1.65;;;0.60;;
5811;SDS011;2932;52.400;9.558;2023-07-31T13:44:28;0.85;;;0.52;;
5811;SDS011;2932;52.400;9.558;2023-07-31T13:46:54;0.65;;;0.60;;
5811;SDS011;2932;52.400;9.558;2023-07-31T13:49:19;0.77;;;0.60;;
5811;SDS011;2932;52.400;9.558;2023-07-31T13:51:45;2.03;;;0.60;;
5811;SDS011;2932;52.400;9.558;2023-07-31T13:54:11;1.38;;;0.55;;
5811;SDS011;2932;52.400;9.558;2023-07-31T13:56:37;0.63;;;0.60;;
5811;SDS011;2932;52.400;9.558;2023-07-31T13:59:02;0.55;;;0.55;;
5811;SDS011;2932;52.400;9.558;2023-07-31T14:01:28;0.95;;;0.65;;
5811;SDS011;2932;52.400;9.558;2023-07-31T14:03:53;0.82;;;0.65;;
5811;SDS011;2932;52.400;9.558;2023-07-31T14:06:19;2.15;;;0.50;;
5811;SDS011;2932;52.400;9.558;2023-07-31T14:08:44;0.63;;;0.60;;
5811;SDS011;2932;52.400;9.558;2023-07-31T14:11:10;0.52;;;0.50;;
5811;SDS011;2932;52.400;9.558;2023-07-31T14:13:35;1.70;;;0.70;;
5811;SDS011;2932;52.400;9.558;2023-07-31T14:16:00;0.60;;;0.60;;
5811;SDS011;2932;52.400;9.558;2023-07-31T14:18:26;0.60;;;0.60;;
5811;SDS011;2932;52.400;9.558;2023-07-31T14:20:51;1.17;;;0.70;;
5811;SDS011;2932;52.400;9.558;2023-07-31T14:23:16;0.95;;;0.90;;
5811;SDS011;2932;52.400;9.558;2023-07-31T14:25:42;1.17;;;1.08;;
5811;SDS011;2932;52.400;9.558;2023-07-31T14:28:07;1.00;;;0.90;;
5811;SDS011;2932;52.400;9.558;2023-07-31T14:30:33;1.35;;;1.25;;
5811;SDS011;2932;52.400;9.558;2023-07-31T14:32:58;2.33;;;1.52;;
5811;SDS011;2932;52.400;9.558;2023-07-31T14:35:25;2.25;;;1.52;;
5811;SDS011;2932;52.400;9.558;2023-07-31T14:37:50;1.90;;;1.80;;
5811;SDS011;2932;52.400;9.558;2023-07-31T14:40:16;2.15;;;1.92;;
5811;SDS011;2932;52.400;9.558;2023-07-31T14:42:41;1.85;;;1.75;;
5811;SDS011;2932;52.400;9.558;2023-07-31T14:45:07;2.30;;;1.73;;
5811;SDS011;2932;52.400;9.558;2023-07-31T14:47:33;2.20;;;1.98;;
5811;SDS011;2932;52.400;9.558;2023-07-31T14:49:58;2.05;;;1.88;;
5811;SDS011;2932;52.400;9.558;2023-07-31T14:52:24;2.13;;;1.90;;
5811;SDS011;2932;52.400;9.558;2023-07-31T14:54:50;1.92;;;1.80;;
5811;SDS011;2932;52.400;9.558;2023-07-31T14:57:15;3.08;;;2.22;;
5811;SDS011;2932;52.400;9.558;2023-07-31T14:59:41;2.17;;;1.98;;
5811;SDS011;2932;52.400;9.558;2023-07-31T15:02:07;2.47;;;2.00;;
5811;SDS011;2932;52.400;9.558;2023-07-31T15:04:33;2.67;;;1.92;;
5811;SDS011;2932;52.400;9.558;2023-07-31T15:06:59;2.10;;;2.00;;
5811;SDS011;2932;52.400;9.558;2023-07-31T15:09:24;2.08;;;1.92;;
5811;SDS011;2932;52.400;9.558;2023-07-31T15:11:49;2.17;;;1.98;;
5811;SDS011;2932;52.400;9.558;2023-07-31T15:14:15;2.63;;;2.38;;
5811;SDS011;2932;52.400;9.558;2023-07-31T15:16:40;2.70;;;2.38;;
5811;SDS011;2932;52.400;9.558;2023-07-31T15:19:05;2.53;;;2.33;;
5811;SDS011;2932;52.400;9.558;2023-07-31T15:21:31;2.42;;;2.22;;
5811;SDS011;2932;52.400;9.558;2023-07-31T15:23:56;2.13;;;1.98;;